Accueil
METAR-TAF:

METAR-TAF

Aéroports :

Tanna, Vanuatu

latitude: 19-27-18S, longitude: 169-13-26E, altitude: 6 m

Observation

Le bulletin a été fait il y a 1 heure et 16 minutes, à 19:00 UTC
Vent 4 kt de sud/sud-est
Température 23°C
Humidité 89%
Pression 1011 hPa

METAR: NVVW 231900Z AUTO 15004KT //// // NCD 23/21 Q1011 RMK NIL

Heure: 07:16 (20:16 UTC)

Prévision

Le bulletin a été fait il y a 4 heures et 16 minutes, à 16:00 UTC
Prévision valable du 23 à 18 UTC au 24 à 18 UTC
Vent 8 kt de est
Visibilité: 9000 m
Nuages épars à une hauteur de 2000 ft
Nuages fragmentés à une hauteur de 4000 ft
Nuages fragmentés à une hauteur de 1800 ft
faibles averses de pluie

TAF: NVVW 231600Z 2318/2418 09008KT 9999 SCT020 BKN040 INTER 2318/2324 9000 -SHRA BKN018

Observations et prévisions météorologiques de plus de 4000 aéroports (messages METAR et TAF).

Les stations disponibles sont représentées par des disques jaunes et rouges sur la carte.

Passer la souris dessus pour voir le nom de la station.

Cliquer dessus pour voir les observations et prévisions météorologiques.

Pour changer de carte: cliquez sur les boutons verts avec une croix noire pour zoomer, sur le bouton vert avec un tiret pour effectuer un zoom arrière, ou sur les flèches vertes pour les cartes adjacentes.


METAR-TAF: